sensor_id;sensor_type;location;lat;lon;timestamp;temperature;humidity
43949;DHT22;29429;51.074;13.764;2022-10-31T00:01:37;9.90;99.90
43949;DHT22;29429;51.074;13.764;2022-10-31T00:04:05;9.90;99.90
43949;DHT22;29429;51.074;13.764;2022-10-31T00:06:33;9.90;99.90
43949;DHT22;29429;51.074;13.764;2022-10-31T00:09:02;9.90;99.90
43949;DHT22;29429;51.074;13.764;2022-10-31T00:11:30;9.90;99.90
43949;DHT22;29429;51.074;13.764;2022-10-31T00:13:58;9.80;99.90
43949;DHT22;29429;51.074;13.764;2022-10-31T00:16:27;9.80;99.90
43949;DHT22;29429;51.074;13.764;2022-10-31T00:18:57;9.80;99.90
43949;DHT22;29429;51.074;13.764;2022-10-31T00:21:26;9.80;99.90
43949;DHT22;29429;51.074;13.764;2022-10-31T00:23:53;9.80;99.90
43949;DHT22;29429;51.074;13.764;2022-10-31T00:26:20;9.80;99.90
43949;DHT22;29429;51.074;13.764;2022-10-31T00:28:48;9.70;99.90
43949;DHT22;29429;51.074;13.764;2022-10-31T00:31:15;9.80;99.90
43949;DHT22;29429;51.074;13.764;2022-10-31T00:33:43;9.80;99.90
43949;DHT22;29429;51.074;13.764;2022-10-31T00:36:12;9.70;99.90
43949;DHT22;29429;51.074;13.764;2022-10-31T00:38:45;9.70;99.90
43949;DHT22;29429;51.074;13.764;2022-10-31T00:41:17;9.70;99.90
43949;DHT22;29429;51.074;13.764;2022-10-31T00:43:44;9.70;99.90
43949;DHT22;29429;51.074;13.764;2022-10-31T00:46:12;9.70;99.90
43949;DHT22;29429;51.074;13.764;2022-10-31T00:48:40;9.70;99.90
43949;DHT22;29429;51.074;13.764;2022-10-31T00:51:08;9.70;99.90
43949;DHT22;29429;51.074;13.764;2022-10-31T00:53:35;9.70;99.90
43949;DHT22;29429;51.074;13.764;2022-10-31T00:56:03;9.70;99.90
43949;DHT22;29429;51.074;13.764;2022-10-31T00:58:30;9.70;99.90
43949;DHT22;29429;51.074;13.764;2022-10-31T01:00:57;9.60;99.90
43949;DHT22;29429;51.074;13.764;2022-10-31T01:03:27;9.60;99.90
43949;DHT22;29429;51.074;13.764;2022-10-31T01:08:34;9.60;99.90
43949;DHT22;29429;51.074;13.764;2022-10-31T01:13:39;9.50;99.90
43949;DHT22;29429;51.074;13.764;2022-10-31T01:16:16;9.50;99.90
43949;DHT22;29429;51.074;13.764;2022-10-31T01:18:49;9.50;99.90
43949;DHT22;29429;51.074;13.764;2022-10-31T01:21:25;9.50;99.90
43949;DHT22;29429;51.074;13.764;2022-10-31T01:23:56;9.40;99.90
43949;DHT22;29429;51.074;13.764;2022-10-31T01:26:25;9.40;99.90
43949;DHT22;29429;51.074;13.764;2022-10-31T01:29:06;9.40;99.90
43949;DHT22;29429;51.074;13.764;2022-10-31T01:31:37;9.40;99.90
43949;DHT22;29429;51.074;13.764;2022-10-31T01:34:05;9.40;99.90
43949;DHT22;29429;51.074;13.764;2022-10-31T01:36:36;9.30;99.90
43949;DHT22;29429;51.074;13.764;2022-10-31T01:39:13;9.40;99.90
43949;DHT22;29429;51.074;13.764;2022-10-31T01:41:48;9.30;99.90
43949;DHT22;29429;51.074;13.764;2022-10-31T01:49:59;9.30;99.90
43949;DHT22;29429;51.074;13.764;2022-10-31T01:52:38;9.30;99.90
43949;DHT22;29429;51.074;13.764;2022-10-31T01:55:23;9.20;99.90
43949;DHT22;29429;51.074;13.764;2022-10-31T01:58:01;9.20;99.90
43949;DHT22;29429;51.074;13.764;2022-10-31T02:00:33;9.20;99.90
43949;DHT22;29429;51.074;13.764;2022-10-31T02:03:01;9.20;99.90
43949;DHT22;29429;51.074;13.764;2022-10-31T02:05:29;9.20;99.90
43949;DHT22;29429;51.074;13.764;2022-10-31T02:10:33;9.20;99.90
43949;DHT22;29429;51.074;13.764;2022-10-31T02:13:04;9.20;99.90
43949;DHT22;29429;51.074;13.764;2022-10-31T02:15:40;9.10;99.90
43949;DHT22;29429;51.074;13.764;2022-10-31T02:18:09;9.10;99.90
43949;DHT22;29429;51.074;13.764;2022-10-31T02:23:47;9.00;99.90
43949;DHT22;29429;51.074;13.764;2022-10-31T02:29:47;9.00;99.90
43949;DHT22;29429;51.074;13.764;2022-10-31T02:41:15;9.00;99.90
43949;DHT22;29429;51.074;13.764;2022-10-31T02:49:36;8.90;99.90
43949;DHT22;29429;51.074;13.764;2022-10-31T02:54:50;8.90;99.90
43949;DHT22;29429;51.074;13.764;2022-10-31T02:57:32;8.70;99.90
43949;DHT22;29429;51.074;13.764;2022-10-31T03:00:38;8.80;99.90
43949;DHT22;29429;51.074;13.764;2022-10-31T03:07:26;8.80;99.90
43949;DHT22;29429;51.074;13.764;2022-10-31T03:12:39;8.80;99.90
43949;DHT22;29429;51.074;13.764;2022-10-31T03:15:26;8.80;99.90
43949;DHT22;29429;51.074;13.764;2022-10-31T03:18:21;8.70;99.90
43949;DHT22;29429;51.074;13.764;2022-10-31T03:21:07;8.70;99.90
43949;DHT22;29429;51.074;13.764;2022-10-31T03:23:43;8.60;99.90
43949;DHT22;29429;51.074;13.764;2022-10-31T03:26:20;8.60;99.90
43949;DHT22;29429;51.074;13.764;2022-10-31T03:29:15;8.60;99.90
43949;DHT22;29429;51.074;13.764;2022-10-31T03:32:01;8.50;99.90
43949;DHT22;29429;51.074;13.764;2022-10-31T03:34:37;8.50;99.90
43949;DHT22;29429;51.074;13.764;2022-10-31T03:37:08;8.50;99.90
43949;DHT22;29429;51.074;13.764;2022-10-31T03:39:41;8.60;99.90
43949;DHT22;29429;51.074;13.764;2022-10-31T03:42:23;8.50;99.90
43949;DHT22;29429;51.074;13.764;2022-10-31T03:44:57;8.50;99.90
43949;DHT22;29429;51.074;13.764;2022-10-31T03:47:27;8.50;99.90
43949;DHT22;29429;51.074;13.764;2022-10-31T03:49:55;8.50;99.90
43949;DHT22;29429;51.074;13.764;2022-10-31T03:55:23;8.50;99.90
43949;DHT22;29429;51.074;13.764;2022-10-31T03:58:06;8.40;99.90
43949;DHT22;29429;51.074;13.764;2022-10-31T04:00:41;8.40;99.90
43949;DHT22;29429;51.074;13.764;2022-10-31T04:03:15;8.40;99.90
43949;DHT22;29429;51.074;13.764;2022-10-31T04:05:50;8.40;99.90
43949;DHT22;29429;51.074;13.764;2022-10-31T04:08:24;8.40;99.90
43949;DHT22;29429;51.074;13.764;2022-10-31T04:10:56;8.40;99.90
43949;DHT22;29429;51.074;13.764;2022-10-31T04:13:29;8.30;99.90
43949;DHT22;29429;51.074;13.764;2022-10-31T04:16:03;8.30;99.90
43949;DHT22;29429;51.074;13.764;2022-10-31T04:18:32;8.30;99.90
43949;DHT22;29429;51.074;13.764;2022-10-31T04:21:02;8.30;99.90
43949;DHT22;29429;51.074;13.764;2022-10-31T04:23:31;8.30;99.90
43949;DHT22;29429;51.074;13.764;2022-10-31T04:26:04;8.30;99.90
43949;DHT22;29429;51.074;13.764;2022-10-31T04:28:31;8.30;99.90
43949;DHT22;29429;51.074;13.764;2022-10-31T04:31:01;8.30;99.90
43949;DHT22;29429;51.074;13.764;2022-10-31T04:33:28;8.30;99.90
43949;DHT22;29429;51.074;13.764;2022-10-31T04:35:55;8.30;99.90
43949;DHT22;29429;51.074;13.764;2022-10-31T04:38:23;8.30;99.90
43949;DHT22;29429;51.074;13.764;2022-10-31T04:40:50;8.20;99.90
43949;DHT22;29429;51.074;13.764;2022-10-31T04:43:42;8.20;99.90
43949;DHT22;29429;51.074;13.764;2022-10-31T04:46:09;8.20;99.90
43949;DHT22;29429;51.074;13.764;2022-10-31T04:48:36;8.20;99.90
43949;DHT22;29429;51.074;13.764;2022-10-31T04:51:05;8.20;99.90
43949;DHT22;29429;51.074;13.764;2022-10-31T04:53:32;8.20;99.90
43949;DHT22;29429;51.074;13.764;2022-10-31T04:56:28;8.20;99.90
43949;DHT22;29429;51.074;13.764;2022-10-31T04:59:01;8.20;99.90
43949;DHT22;29429;51.074;13.764;2022-10-31T05:01:40;8.10;99.90
43949;DHT22;29429;51.074;13.764;2022-10-31T05:04:24;8.20;99.90
43949;DHT22;29429;51.074;13.764;2022-10-31T05:06:52;8.10;99.90
43949;DHT22;29429;51.074;13.764;2022-10-31T05:09:19;8.10;99.90
43949;DHT22;29429;51.074;13.764;2022-10-31T05:11:46;8.10;99.90
43949;DHT22;29429;51.074;13.764;2022-10-31T05:14:31;8.10;99.90
43949;DHT22;29429;51.074;13.764;2022-10-31T05:17:21;8.00;99.90
43949;DHT22;29429;51.074;13.764;2022-10-31T05:20:28;8.00;99.90
43949;DHT22;29429;51.074;13.764;2022-10-31T05:23:28;8.00;99.90
43949;DHT22;29429;51.074;13.764;2022-10-31T05:25:55;8.00;99.90
43949;DHT22;29429;51.074;13.764;2022-10-31T05:28:21;8.00;99.90
43949;DHT22;29429;51.074;13.764;2022-10-31T05:30:49;7.90;99.90
43949;DHT22;29429;51.074;13.764;2022-10-31T05:33:16;7.90;99.90
43949;DHT22;29429;51.074;13.764;2022-10-31T05:36:02;7.90;99.90
43949;DHT22;29429;51.074;13.764;2022-10-31T05:38:35;7.90;99.90
43949;DHT22;29429;51.074;13.764;2022-10-31T05:41:13;7.90;99.90
43949;DHT22;29429;51.074;13.764;2022-10-31T05:43:45;7.90;99.90
43949;DHT22;29429;51.074;13.764;2022-10-31T05:46:13;7.80;99.90
43949;DHT22;29429;51.074;13.764;2022-10-31T05:48:58;7.80;99.90
43949;DHT22;29429;51.074;13.764;2022-10-31T05:52:00;7.80;99.90
43949;DHT22;29429;51.074;13.764;2022-10-31T05:54:36;7.80;99.90
43949;DHT22;29429;51.074;13.764;2022-10-31T05:57:03;7.80;99.90
43949;DHT22;29429;51.074;13.764;2022-10-31T05:59:31;7.70;99.90
43949;DHT22;29429;51.074;13.764;2022-10-31T06:02:00;7.70;99.90
43949;DHT22;29429;51.074;13.764;2022-10-31T06:04:53;7.70;99.90
43949;DHT22;29429;51.074;13.764;2022-10-31T06:07:21;7.70;99.90
43949;DHT22;29429;51.074;13.764;2022-10-31T06:09:49;7.70;99.90
43949;DHT22;29429;51.074;13.764;2022-10-31T06:12:16;7.80;99.90
43949;DHT22;29429;51.074;13.764;2022-10-31T06:15:11;7.80;99.90
43949;DHT22;29429;51.074;13.764;2022-10-31T06:17:38;7.80;99.90
43949;DHT22;29429;51.074;13.764;2022-10-31T06:20:19;7.80;99.90
43949;DHT22;29429;51.074;13.764;2022-10-31T06:22:55;7.80;99.90
43949;DHT22;29429;51.074;13.764;2022-10-31T06:25:23;7.80;99.90
43949;DHT22;29429;51.074;13.764;2022-10-31T06:27:50;7.80;99.90
43949;DHT22;29429;51.074;13.764;2022-10-31T06:30:19;7.90;99.90
43949;DHT22;29429;51.074;13.764;2022-10-31T06:32:46;7.90;99.90
43949;DHT22;29429;51.074;13.764;2022-10-31T06:35:13;8.00;99.90
43949;DHT22;29429;51.074;13.764;2022-10-31T06:37:41;8.00;99.90
43949;DHT22;29429;51.074;13.764;2022-10-31T06:40:25;8.10;99.90
43949;DHT22;29429;51.074;13.764;2022-10-31T06:43:15;8.10;99.90
43949;DHT22;29429;51.074;13.764;2022-10-31T06:45:43;8.10;99.90
43949;DHT22;29429;51.074;13.764;2022-10-31T06:48:12;8.20;99.90
43949;DHT22;29429;51.074;13.764;2022-10-31T06:51:03;8.20;99.90
43949;DHT22;29429;51.074;13.764;2022-10-31T06:53:31;8.20;99.90
43949;DHT22;29429;51.074;13.764;2022-10-31T06:55:58;8.30;99.90
43949;DHT22;29429;51.074;13.764;2022-10-31T06:58:25;8.30;99.90
43949;DHT22;29429;51.074;13.764;2022-10-31T07:01:00;8.30;99.90
43949;DHT22;29429;51.074;13.764;2022-10-31T07:03:27;8.40;99.90
43949;DHT22;29429;51.074;13.764;2022-10-31T07:05:55;8.50;99.90
43949;DHT22;29429;51.074;13.764;2022-10-31T07:08:23;8.50;99.90
43949;DHT22;29429;51.074;13.764;2022-10-31T07:10:53;8.60;99.90
43949;DHT22;29429;51.074;13.764;2022-10-31T07:13:23;8.70;99.90
43949;DHT22;29429;51.074;13.764;2022-10-31T07:16:06;8.90;99.90
43949;DHT22;29429;51.074;13.764;2022-10-31T07:18:35;8.80;99.90
43949;DHT22;29429;51.074;13.764;2022-10-31T07:21:02;8.80;99.90
43949;DHT22;29429;51.074;13.764;2022-10-31T07:23:30;8.90;99.90
43949;DHT22;29429;51.074;13.764;2022-10-31T07:26:23;9.00;99.90
43949;DHT22;29429;51.074;13.764;2022-10-31T07:28:51;9.10;99.90
43949;DHT22;29429;51.074;13.764;2022-10-31T07:31:21;9.10;99.90
43949;DHT22;29429;51.074;13.764;2022-10-31T07:33:50;9.20;99.90
43949;DHT22;29429;51.074;13.764;2022-10-31T07:36:39;9.20;99.90
43949;DHT22;29429;51.074;13.764;2022-10-31T07:39:06;9.30;99.90
43949;DHT22;29429;51.074;13.764;2022-10-31T07:41:35;9.40;99.90
43949;DHT22;29429;51.074;13.764;2022-10-31T07:44:01;9.40;99.90
43949;DHT22;29429;51.074;13.764;2022-10-31T07:46:28;9.50;99.90
43949;DHT22;29429;51.074;13.764;2022-10-31T07:49:14;9.50;99.90
43949;DHT22;29429;51.074;13.764;2022-10-31T07:51:59;9.60;99.90
43949;DHT22;29429;51.074;13.764;2022-10-31T07:54:26;9.70;99.90
43949;DHT22;29429;51.074;13.764;2022-10-31T07:56:53;9.70;99.90
43949;DHT22;29429;51.074;13.764;2022-10-31T07:59:20;9.80;99.90
43949;DHT22;29429;51.074;13.764;2022-10-31T08:01:47;9.90;99.90
43949;DHT22;29429;51.074;13.764;2022-10-31T08:04:40;10.00;99.90
43949;DHT22;29429;51.074;13.764;2022-10-31T08:07:36;10.00;99.90
43949;DHT22;29429;51.074;13.764;2022-10-31T08:10:07;10.00;99.90
43949;DHT22;29429;51.074;13.764;2022-10-31T08:12:34;10.10;99.90
43949;DHT22;29429;51.074;13.764;2022-10-31T08:15:03;10.30;99.90
43949;DHT22;29429;51.074;13.764;2022-10-31T08:17:30;10.20;99.90
43949;DHT22;29429;51.074;13.764;2022-10-31T08:20:03;10.30;99.90
43949;DHT22;29429;51.074;13.764;2022-10-31T08:22:34;10.40;99.90
43949;DHT22;29429;51.074;13.764;2022-10-31T08:25:09;10.40;99.90
43949;DHT22;29429;51.074;13.764;2022-10-31T08:27:36;10.50;99.90
43949;DHT22;29429;51.074;13.764;2022-10-31T08:30:03;10.60;99.90
43949;DHT22;29429;51.074;13.764;2022-10-31T08:32:32;10.70;99.90
43949;DHT22;29429;51.074;13.764;2022-10-31T08:35:18;10.70;99.90
43949;DHT22;29429;51.074;13.764;2022-10-31T08:38:03;10.80;99.90
43949;DHT22;29429;51.074;13.764;2022-10-31T08:40:32;10.90;99.90
43949;DHT22;29429;51.074;13.764;2022-10-31T08:43:06;11.00;99.90
43949;DHT22;29429;51.074;13.764;2022-10-31T08:45:37;11.10;99.90
43949;DHT22;29429;51.074;13.764;2022-10-31T08:48:11;11.10;99.90
43949;DHT22;29429;51.074;13.764;2022-10-31T08:50:40;11.20;99.90
43949;DHT22;29429;51.074;13.764;2022-10-31T08:53:18;11.30;99.90
43949;DHT22;29429;51.074;13.764;2022-10-31T08:55:54;11.40;99.90
43949;DHT22;29429;51.074;13.764;2022-10-31T08:58:25;11.40;99.90
43949;DHT22;29429;51.074;13.764;2022-10-31T09:00:59;11.50;99.90
43949;DHT22;29429;51.074;13.764;2022-10-31T09:03:29;11.60;99.90
43949;DHT22;29429;51.074;13.764;2022-10-31T09:06:02;11.70;99.90
43949;DHT22;29429;51.074;13.764;2022-10-31T09:08:33;11.70;99.90
43949;DHT22;29429;51.074;13.764;2022-10-31T09:11:01;11.80;99.90
43949;DHT22;29429;51.074;13.764;2022-10-31T09:13:47;11.90;99.90
43949;DHT22;29429;51.074;13.764;2022-10-31T09:16:43;12.00;99.90
43949;DHT22;29429;51.074;13.764;2022-10-31T09:19:17;12.10;99.90
43949;DHT22;29429;51.074;13.764;2022-10-31T09:21:45;12.20;99.90
43949;DHT22;29429;51.074;13.764;2022-10-31T09:24:12;12.20;99.90
43949;DHT22;29429;51.074;13.764;2022-10-31T09:26:41;12.30;99.90
43949;DHT22;29429;51.074;13.764;2022-10-31T09:29:26;12.40;99.90
43949;DHT22;29429;51.074;13.764;2022-10-31T09:31:57;12.50;99.90
43949;DHT22;29429;51.074;13.764;2022-10-31T09:34:29;12.60;99.90
43949;DHT22;29429;51.074;13.764;2022-10-31T09:37:08;12.70;99.90
43949;DHT22;29429;51.074;13.764;2022-10-31T09:39:35;12.70;99.90
43949;DHT22;29429;51.074;13.764;2022-10-31T09:49:23;13.00;99.90
43949;DHT22;29429;51.074;13.764;2022-10-31T09:52:19;13.10;99.90
43949;DHT22;29429;51.074;13.764;2022-10-31T09:54:54;13.20;99.90
43949;DHT22;29429;51.074;13.764;2022-10-31T09:57:29;13.30;99.90
43949;DHT22;29429;51.074;13.764;2022-10-31T10:00:02;13.40;99.90
43949;DHT22;29429;51.074;13.764;2022-10-31T10:03:02;13.50;99.90
43949;DHT22;29429;51.074;13.764;2022-10-31T10:05:37;13.60;99.90
43949;DHT22;29429;51.074;13.764;2022-10-31T10:08:42;13.70;99.90
43949;DHT22;29429;51.074;13.764;2022-10-31T10:11:46;13.80;99.90
43949;DHT22;29429;51.074;13.764;2022-10-31T10:15:33;13.90;99.90
43949;DHT22;29429;51.074;13.764;2022-10-31T10:21:15;14.10;99.90
43949;DHT22;29429;51.074;13.764;2022-10-31T10:30:21;14.40;99.90
43949;DHT22;29429;51.074;13.764;2022-10-31T10:32:57;14.50;99.90
43949;DHT22;29429;51.074;13.764;2022-10-31T10:41:32;14.80;99.90
43949;DHT22;29429;51.074;13.764;2022-10-31T10:44:00;14.90;99.90
43949;DHT22;29429;51.074;13.764;2022-10-31T10:46:57;14.90;99.90
43949;DHT22;29429;51.074;13.764;2022-10-31T10:49:50;15.10;99.90
43949;DHT22;29429;51.074;13.764;2022-10-31T10:52:42;15.10;99.90
43949;DHT22;29429;51.074;13.764;2022-10-31T10:58:15;15.30;99.90
43949;DHT22;29429;51.074;13.764;2022-10-31T11:00:45;15.40;99.90
43949;DHT22;29429;51.074;13.764;2022-10-31T11:03:16;15.40;99.90
43949;DHT22;29429;51.074;13.764;2022-10-31T11:05:51;15.40;99.90
43949;DHT22;29429;51.074;13.764;2022-10-31T11:08:34;15.60;99.90
43949;DHT22;29429;51.074;13.764;2022-10-31T11:11:03;15.60;99.90
43949;DHT22;29429;51.074;13.764;2022-10-31T11:13:48;15.70;99.90
43949;DHT22;29429;51.074;13.764;2022-10-31T11:16:27;15.80;99.90
43949;DHT22;29429;51.074;13.764;2022-10-31T11:19:19;15.80;99.90
43949;DHT22;29429;51.074;13.764;2022-10-31T11:21:49;15.90;99.90
43949;DHT22;29429;51.074;13.764;2022-10-31T11:24:24;15.90;99.90
43949;DHT22;29429;51.074;13.764;2022-10-31T11:27:15;16.00;99.90
43949;DHT22;29429;51.074;13.764;2022-10-31T11:29:47;16.00;99.90
43949;DHT22;29429;51.074;13.764;2022-10-31T11:32:26;15.90;99.90
43949;DHT22;29429;51.074;13.764;2022-10-31T11:34:57;16.10;99.90
43949;DHT22;29429;51.074;13.764;2022-10-31T11:37:41;16.20;99.90
43949;DHT22;29429;51.074;13.764;2022-10-31T11:40:26;16.30;99.90
43949;DHT22;29429;51.074;13.764;2022-10-31T11:42:56;16.30;99.90
43949;DHT22;29429;51.074;13.764;2022-10-31T11:45:32;16.40;99.90
43949;DHT22;29429;51.074;13.764;2022-10-31T11:48:01;16.50;99.90
43949;DHT22;29429;51.074;13.764;2022-10-31T11:50:42;16.50;99.90
43949;DHT22;29429;51.074;13.764;2022-10-31T11:53:24;16.60;99.90
43949;DHT22;29429;51.074;13.764;2022-10-31T11:56:13;16.60;99.90
43949;DHT22;29429;51.074;13.764;2022-10-31T11:58:59;16.60;99.90
43949;DHT22;29429;51.074;13.764;2022-10-31T12:01:49;16.70;99.90
43949;DHT22;29429;51.074;13.764;2022-10-31T12:04:41;16.80;99.90
43949;DHT22;29429;51.074;13.764;2022-10-31T12:07:15;16.70;99.90
43949;DHT22;29429;51.074;13.764;2022-10-31T12:09:42;16.70;99.90
43949;DHT22;29429;51.074;13.764;2022-10-31T12:24:47;16.70;99.90
43949;DHT22;29429;51.074;13.764;2022-10-31T12:33:34;16.80;99.90
43949;DHT22;29429;51.074;13.764;2022-10-31T12:51:37;17.00;99.90
43949;DHT22;29429;51.074;13.764;2022-10-31T12:59:53;17.00;99.90
43949;DHT22;29429;51.074;13.764;2022-10-31T13:02:35;17.00;99.90
43949;DHT22;29429;51.074;13.764;2022-10-31T13:05:32;17.10;99.90
43949;DHT22;29429;51.074;13.764;2022-10-31T13:08:09;17.10;99.90
43949;DHT22;29429;51.074;13.764;2022-10-31T13:10:50;17.20;99.90
43949;DHT22;29429;51.074;13.764;2022-10-31T13:16:19;17.10;99.90
43949;DHT22;29429;51.074;13.764;2022-10-31T13:19:04;17.10;99.90
43949;DHT22;29429;51.074;13.764;2022-10-31T13:24:22;17.10;99.90
43949;DHT22;29429;51.074;13.764;2022-10-31T13:26:57;17.10;99.90
43949;DHT22;29429;51.074;13.764;2022-10-31T13:29:54;17.10;99.90
43949;DHT22;29429;51.074;13.764;2022-10-31T13:32:54;17.10;99.90
43949;DHT22;29429;51.074;13.764;2022-10-31T13:38:38;17.10;99.90
43949;DHT22;29429;51.074;13.764;2022-10-31T13:44:19;17.00;99.90
43949;DHT22;29429;51.074;13.764;2022-10-31T13:46:52;17.10;99.90
43949;DHT22;29429;51.074;13.764;2022-10-31T13:52:14;17.10;99.90
43949;DHT22;29429;51.074;13.764;2022-10-31T13:54:46;17.10;99.90
43949;DHT22;29429;51.074;13.764;2022-10-31T14:02:51;17.20;99.90
43949;DHT22;29429;51.074;13.764;2022-10-31T14:08:01;17.20;99.90
43949;DHT22;29429;51.074;13.764;2022-10-31T14:10:36;17.20;99.90
43949;DHT22;29429;51.074;13.764;2022-10-31T14:13:22;17.20;99.90
43949;DHT22;29429;51.074;13.764;2022-10-31T14:16:39;17.20;99.90
43949;DHT22;29429;51.074;13.764;2022-10-31T14:19:18;17.10;99.90
43949;DHT22;29429;51.074;13.764;2022-10-31T14:21:47;17.10;99.90
43949;DHT22;29429;51.074;13.764;2022-10-31T14:24:31;17.10;99.90
43949;DHT22;29429;51.074;13.764;2022-10-31T14:29:46;17.10;99.90
43949;DHT22;29429;51.074;13.764;2022-10-31T14:32:21;17.00;99.90
43949;DHT22;29429;51.074;13.764;2022-10-31T14:37:35;16.90;99.90
43949;DHT22;29429;51.074;13.764;2022-10-31T14:51:40;16.60;99.90
43949;DHT22;29429;51.074;13.764;2022-10-31T14:54:30;16.50;99.90
43949;DHT22;29429;51.074;13.764;2022-10-31T14:57:16;16.40;99.90
43949;DHT22;29429;51.074;13.764;2022-10-31T14:59:52;16.30;99.90
43949;DHT22;29429;51.074;13.764;2022-10-31T15:02:34;16.20;99.90
43949;DHT22;29429;51.074;13.764;2022-10-31T15:05:10;16.10;99.90
43949;DHT22;29429;51.074;13.764;2022-10-31T15:07:57;16.00;99.90
43949;DHT22;29429;51.074;13.764;2022-10-31T15:13:18;15.90;99.90
43949;DHT22;29429;51.074;13.764;2022-10-31T15:15:46;15.80;99.90
43949;DHT22;29429;51.074;13.764;2022-10-31T15:18:25;15.80;99.90
43949;DHT22;29429;51.074;13.764;2022-10-31T15:20:56;15.70;99.90
43949;DHT22;29429;51.074;13.764;2022-10-31T15:23:28;15.60;99.90
43949;DHT22;29429;51.074;13.764;2022-10-31T15:26:04;15.60;99.90
43949;DHT22;29429;51.074;13.764;2022-10-31T15:28:31;15.40;99.90
43949;DHT22;29429;51.074;13.764;2022-10-31T15:31:00;15.30;99.90
43949;DHT22;29429;51.074;13.764;2022-10-31T15:33:31;15.20;99.90
43949;DHT22;29429;51.074;13.764;2022-10-31T15:36:22;15.10;99.90
43949;DHT22;29429;51.074;13.764;2022-10-31T15:38:57;15.00;99.90
43949;DHT22;29429;51.074;13.764;2022-10-31T15:44:32;14.80;99.90
43949;DHT22;29429;51.074;13.764;2022-10-31T15:47:05;14.60;99.90
43949;DHT22;29429;51.074;13.764;2022-10-31T15:49:51;14.70;99.90
43949;DHT22;29429;51.074;13.764;2022-10-31T15:55:19;14.50;99.90
43949;DHT22;29429;51.074;13.764;2022-10-31T15:57:53;14.50;99.90
43949;DHT22;29429;51.074;13.764;2022-10-31T16:00:33;14.40;99.90
43949;DHT22;29429;51.074;13.764;2022-10-31T16:05:47;14.30;99.90
43949;DHT22;29429;51.074;13.764;2022-10-31T16:14:00;14.00;99.90
43949;DHT22;29429;51.074;13.764;2022-10-31T16:16:32;14.00;99.90
43949;DHT22;29429;51.074;13.764;2022-10-31T16:19:04;13.90;99.90
43949;DHT22;29429;51.074;13.764;2022-10-31T16:21:35;13.80;99.90
43949;DHT22;29429;51.074;13.764;2022-10-31T16:26:49;13.60;99.90
43949;DHT22;29429;51.074;13.764;2022-10-31T16:32:51;13.50;99.90
43949;DHT22;29429;51.074;13.764;2022-10-31T16:35:32;13.30;99.90
43949;DHT22;29429;51.074;13.764;2022-10-31T16:38:01;13.30;99.90
43949;DHT22;29429;51.074;13.764;2022-10-31T16:40:29;13.20;99.90
43949;DHT22;29429;51.074;13.764;2022-10-31T16:42:58;13.20;99.90
43949;DHT22;29429;51.074;13.764;2022-10-31T16:45:30;13.10;99.90
43949;DHT22;29429;51.074;13.764;2022-10-31T16:48:09;13.00;99.90
43949;DHT22;29429;51.074;13.764;2022-10-31T16:50:38;13.00;99.90
43949;DHT22;29429;51.074;13.764;2022-10-31T16:53:05;12.90;99.90
43949;DHT22;29429;51.074;13.764;2022-10-31T16:58:36;12.90;99.90
43949;DHT22;29429;51.074;13.764;2022-10-31T17:01:05;13.00;99.90
43949;DHT22;29429;51.074;13.764;2022-10-31T17:03:36;12.90;99.90
43949;DHT22;29429;51.074;13.764;2022-10-31T17:06:21;12.80;99.90
43949;DHT22;29429;51.074;13.764;2022-10-31T17:08:48;12.80;99.90
43949;DHT22;29429;51.074;13.764;2022-10-31T17:11:21;12.80;99.90
43949;DHT22;29429;51.074;13.764;2022-10-31T17:13:58;12.70;99.90
43949;DHT22;29429;51.074;13.764;2022-10-31T17:16:25;12.70;99.90
43949;DHT22;29429;51.074;13.764;2022-10-31T17:18:52;12.60;99.90
43949;DHT22;29429;51.074;13.764;2022-10-31T17:21:23;12.70;99.90
43949;DHT22;29429;51.074;13.764;2022-10-31T17:23:53;12.90;99.90
43949;DHT22;29429;51.074;13.764;2022-10-31T17:26:20;12.60;99.90
43949;DHT22;29429;51.074;13.764;2022-10-31T17:28:51;12.60;99.90
43949;DHT22;29429;51.074;13.764;2022-10-31T17:31:24;12.70;99.90
43949;DHT22;29429;51.074;13.764;2022-10-31T17:33:55;12.60;99.90
43949;DHT22;29429;51.074;13.764;2022-10-31T17:36:30;12.60;99.90
43949;DHT22;29429;51.074;13.764;2022-10-31T17:38:58;12.60;99.90
43949;DHT22;29429;51.074;13.764;2022-10-31T17:41:25;12.60;99.90
43949;DHT22;29429;51.074;13.764;2022-10-31T17:43:56;12.50;99.90
43949;DHT22;29429;51.074;13.764;2022-10-31T17:46:24;12.50;99.90
43949;DHT22;29429;51.074;13.764;2022-10-31T17:48:51;12.30;99.90
43949;DHT22;29429;51.074;13.764;2022-10-31T17:51:18;12.40;99.90
43949;DHT22;29429;51.074;13.764;2022-10-31T17:53:46;12.30;99.90
43949;DHT22;29429;51.074;13.764;2022-10-31T17:56:13;12.30;99.90
43949;DHT22;29429;51.074;13.764;2022-10-31T17:58:39;12.30;99.90
43949;DHT22;29429;51.074;13.764;2022-10-31T18:01:09;12.30;99.90
43949;DHT22;29429;51.074;13.764;2022-10-31T18:03:38;12.30;99.90
43949;DHT22;29429;51.074;13.764;2022-10-31T18:06:06;12.30;99.90
43949;DHT22;29429;51.074;13.764;2022-10-31T18:08:38;12.30;99.90
43949;DHT22;29429;51.074;13.764;2022-10-31T18:11:11;12.30;99.90
43949;DHT22;29429;51.074;13.764;2022-10-31T18:13:40;12.30;99.90
43949;DHT22;29429;51.074;13.764;2022-10-31T18:16:15;12.20;99.90
43949;DHT22;29429;51.074;13.764;2022-10-31T18:18:52;12.30;99.90
43949;DHT22;29429;51.074;13.764;2022-10-31T18:21:22;12.30;99.90
43949;DHT22;29429;51.074;13.764;2022-10-31T18:23:56;12.30;99.90
43949;DHT22;29429;51.074;13.764;2022-10-31T18:26:25;12.20;99.90
43949;DHT22;29429;51.074;13.764;2022-10-31T18:28:53;12.20;99.90
43949;DHT22;29429;51.074;13.764;2022-10-31T18:31:21;12.30;99.90
43949;DHT22;29429;51.074;13.764;2022-10-31T18:33:54;12.20;99.90
43949;DHT22;29429;51.074;13.764;2022-10-31T18:36:22;12.30;99.90
43949;DHT22;29429;51.074;13.764;2022-10-31T18:38:50;12.20;99.90
43949;DHT22;29429;51.074;13.764;2022-10-31T18:41:17;12.20;99.90
43949;DHT22;29429;51.074;13.764;2022-10-31T18:43:45;12.20;99.90
43949;DHT22;29429;51.074;13.764;2022-10-31T18:46:13;12.20;99.90
43949;DHT22;29429;51.074;13.764;2022-10-31T18:48:43;12.20;99.90
43949;DHT22;29429;51.074;13.764;2022-10-31T18:51:12;12.20;99.90
43949;DHT22;29429;51.074;13.764;2022-10-31T18:53:40;12.20;99.90
43949;DHT22;29429;51.074;13.764;2022-10-31T18:56:09;12.20;99.90
43949;DHT22;29429;51.074;13.764;2022-10-31T18:58:36;12.10;99.90
43949;DHT22;29429;51.074;13.764;2022-10-31T19:01:07;12.00;99.90
43949;DHT22;29429;51.074;13.764;2022-10-31T19:03:37;12.10;99.90
43949;DHT22;29429;51.074;13.764;2022-10-31T19:06:06;12.00;99.90
43949;DHT22;29429;51.074;13.764;2022-10-31T19:08:38;11.90;99.90